sensor_id;sensor_type;location;lat;lon;timestamp;pressure;altitude;pressure_sealevel;temperature;humidity
11519;BME280;5816;48.228;14.116;2023-02-14T05:40:20;100009.84;;;-1.01;100.00
11519;BME280;5816;48.228;14.116;2023-02-14T05:45:22;100011.88;;;-1.37;100.00
11519;BME280;5816;48.228;14.116;2023-02-14T05:50:24;100019.47;;;-0.97;100.00
11519;BME280;5816;48.228;14.116;2023-02-14T05:55:26;100017.91;;;-1.21;100.00
11519;BME280;5816;48.228;14.116;2023-02-14T06:00:28;100024.09;;;-1.28;100.00
11519;BME280;5816;48.228;14.116;2023-02-14T06:05:29;100020.53;;;-1.21;100.00
11519;BME280;5816;48.228;14.116;2023-02-14T06:10:31;100014.34;;;-1.16;100.00
11519;BME280;5816;48.228;14.116;2023-02-14T06:15:36;99984.84;;;-1.53;100.00
11519;BME280;5816;48.228;14.116;2023-02-14T06:20:38;100027.47;;;-1.14;100.00
11519;BME280;5816;48.228;14.116;2023-02-14T06:25:40;100001.28;;;-1.26;100.00
11519;BME280;5816;48.228;14.116;2023-02-14T06:30:42;100020.59;;;-1.33;100.00
11519;BME280;5816;48.228;14.116;2023-02-14T06:35:43;100011.75;;;-1.20;100.00
11519;BME280;5816;48.228;14.116;2023-02-14T06:40:45;100017.81;;;-1.12;100.00
11519;BME280;5816;48.228;14.116;2023-02-14T06:45:47;100008.06;;;-1.01;100.00
11519;BME280;5816;48.228;14.116;2023-02-14T06:50:48;100016.81;;;-0.96;100.00
11519;BME280;5816;48.228;14.116;2023-02-14T06:55:50;100011.56;;;-0.99;100.00
11519;BME280;5816;48.228;14.116;2023-02-14T07:00:56;100032.44;;;-0.84;100.00
11519;BME280;5816;48.228;14.116;2023-02-14T07:05:58;99981.88;;;-1.10;100.00
11519;BME280;5816;48.228;14.116;2023-02-14T07:11:00;99994.91;;;-0.99;100.00
11519;BME280;5816;48.228;14.116;2023-02-14T07:16:02;100015.88;;;-0.90;100.00
11519;BME280;5816;48.228;14.116;2023-02-14T07:21:04;100016.63;;;-0.77;100.00
11519;BME280;5816;48.228;14.116;2023-02-14T07:26:06;100005.53;;;-1.08;100.00
11519;BME280;5816;48.228;14.116;2023-02-14T07:31:07;99999.09;;;-0.80;100.00
11519;BME280;5816;48.228;14.116;2023-02-14T07:36:10;100012.38;;;-0.89;100.00
11519;BME280;5816;48.228;14.116;2023-02-14T07:41:11;100012.44;;;-0.98;100.00
11519;BME280;5816;48.228;14.116;2023-02-14T07:46:13;99988.75;;;-0.97;100.00
11519;BME280;5816;48.228;14.116;2023-02-14T07:51:15;100011.41;;;-0.80;100.00
11519;BME280;5816;48.228;14.116;2023-02-14T07:56:16;100014.97;;;-0.91;100.00
11519;BME280;5816;48.228;14.116;2023-02-14T08:01:18;100003.41;;;-0.73;100.00
11519;BME280;5816;48.228;14.116;2023-02-14T08:06:21;100009.25;;;-0.45;100.00
11519;BME280;5816;48.228;14.116;2023-02-14T08:11:23;100000.72;;;-0.65;100.00
11519;BME280;5816;48.228;14.116;2023-02-14T08:16:43;100012.03;;;-0.57;100.00
11519;BME280;5816;48.228;14.116;2023-02-14T08:21:45;100006.09;;;-0.77;100.00
11519;BME280;5816;48.228;14.116;2023-02-14T08:26:47;100006.81;;;-0.63;100.00
11519;BME280;5816;48.228;14.116;2023-02-14T08:31:48;100004.16;;;-0.60;100.00
11519;BME280;5816;48.228;14.116;2023-02-14T08:36:50;99999.56;;;-0.40;100.00
11519;BME280;5816;48.228;14.116;2023-02-14T08:41:52;99998.78;;;-0.51;100.00
11519;BME280;5816;48.228;14.116;2023-02-14T08:46:54;100000.53;;;-0.50;100.00
11519;BME280;5816;48.228;14.116;2023-02-14T08:51:55;99993.56;;;-0.52;100.00
11519;BME280;5816;48.228;14.116;2023-02-14T08:56:57;99992.53;;;-0.39;100.00
11519;BME280;5816;48.228;14.116;2023-02-14T09:01:59;100002.44;;;-0.64;100.00
11519;BME280;5816;48.228;14.116;2023-02-14T09:07:00;100007.25;;;-0.24;100.00
11519;BME280;5816;48.228;14.116;2023-02-14T09:12:06;100002.66;;;-0.07;100.00
11519;BME280;5816;48.228;14.116;2023-02-14T09:17:12;100005.19;;;-0.01;100.00
11519;BME280;5816;48.228;14.116;2023-02-14T09:22:14;99996.44;;;0.00;100.00
11519;BME280;5816;48.228;14.116;2023-02-14T09:27:16;100000.59;;;0.16;100.00
11519;BME280;5816;48.228;14.116;2023-02-14T09:32:17;100005.91;;;0.15;100.00
11519;BME280;5816;48.228;14.116;2023-02-14T09:37:19;100001.44;;;0.18;100.00
11519;BME280;5816;48.228;14.116;2023-02-14T09:42:36;99999.78;;;0.11;100.00
11519;BME280;5816;48.228;14.116;2023-02-14T09:47:51;99994.38;;;0.20;100.00
11519;BME280;5816;48.228;14.116;2023-02-14T09:52:58;99999.56;;;0.26;100.00
11519;BME280;5816;48.228;14.116;2023-02-14T09:58:20;99998.72;;;0.81;100.00
11519;BME280;5816;48.228;14.116;2023-02-14T10:03:43;100000.53;;;0.76;100.00
11519;BME280;5816;48.228;14.116;2023-02-14T10:08:56;100011.09;;;0.76;100.00
11519;BME280;5816;48.228;14.116;2023-02-14T10:14:13;100008.72;;;0.63;100.00
11519;BME280;5816;48.228;14.116;2023-02-14T10:24:34;99996.66;;;1.00;100.00
11519;BME280;5816;48.228;14.116;2023-02-14T10:29:38;99982.84;;;0.85;100.00
11519;BME280;5816;48.228;14.116;2023-02-14T10:34:54;99989.13;;;0.77;100.00
11519;BME280;5816;48.228;14.116;2023-02-14T10:41:02;99993.50;;;0.78;100.00
11519;BME280;5816;48.228;14.116;2023-02-14T10:46:01;99989.25;;;0.70;100.00
11519;BME280;5816;48.228;14.116;2023-02-14T10:56:26;99984.16;;;1.10;100.00
11519;BME280;5816;48.228;14.116;2023-02-14T11:01:28;99962.78;;;0.74;100.00
11519;BME280;5816;48.228;14.116;2023-02-14T11:06:31;99976.25;;;1.08;100.00
11519;BME280;5816;48.228;14.116;2023-02-14T11:16:47;99956.41;;;0.88;100.00
11519;BME280;5816;48.228;14.116;2023-02-14T11:21:54;99924.00;;;1.27;100.00
11519;BME280;5816;48.228;14.116;2023-02-14T11:26:59;99928.00;;;1.02;100.00
11519;BME280;5816;48.228;14.116;2023-02-14T11:32:12;99934.56;;;1.27;100.00
11519;BME280;5816;48.228;14.116;2023-02-14T11:42:32;99929.09;;;1.36;100.00
11519;BME280;5816;48.228;14.116;2023-02-14T11:47:36;99925.72;;;1.30;100.00
11519;BME280;5816;48.228;14.116;2023-02-14T11:52:49;99925.06;;;1.19;100.00
11519;BME280;5816;48.228;14.116;2023-02-14T11:57:52;99925.25;;;1.53;100.00
11519;BME280;5816;48.228;14.116;2023-02-14T12:02:57;99922.78;;;1.44;100.00
11519;BME280;5816;48.228;14.116;2023-02-14T12:08:02;99909.34;;;1.56;100.00
11519;BME280;5816;48.228;14.116;2023-02-14T12:23:29;99885.03;;;1.38;100.00
11519;BME280;5816;48.228;14.116;2023-02-14T12:28:47;99885.25;;;1.29;100.00
11519;BME280;5816;48.228;14.116;2023-02-14T12:33:50;99863.47;;;1.20;100.00
11519;BME280;5816;48.228;14.116;2023-02-14T12:38:54;99879.56;;;1.49;100.00
11519;BME280;5816;48.228;14.116;2023-02-14T12:44:04;99876.44;;;1.71;100.00
11519;BME280;5816;48.228;14.116;2023-02-14T12:49:24;99867.50;;;1.78;100.00
11519;BME280;5816;48.228;14.116;2023-02-14T12:54:31;99871.16;;;1.71;100.00
11519;BME280;5816;48.228;14.116;2023-02-14T13:00:03;99845.06;;;1.57;100.00
11519;BME280;5816;48.228;14.116;2023-02-14T13:16:22;99845.75;;;1.65;100.00
11519;BME280;5816;48.228;14.116;2023-02-14T13:21:30;99836.31;;;1.55;100.00
11519;BME280;5816;48.228;14.116;2023-02-14T13:26:36;99832.94;;;1.48;100.00
11519;BME280;5816;48.228;14.116;2023-02-14T13:31:40;99841.69;;;1.50;100.00
11519;BME280;5816;48.228;14.116;2023-02-14T13:36:43;99848.06;;;1.40;100.00
11519;BME280;5816;48.228;14.116;2023-02-14T13:41:45;99829.09;;;1.63;100.00
11519;BME280;5816;48.228;14.116;2023-02-14T13:46:50;99836.47;;;1.47;100.00
11519;BME280;5816;48.228;14.116;2023-02-14T13:51:54;99828.78;;;1.36;100.00
11519;BME280;5816;48.228;14.116;2023-02-14T13:56:57;99816.72;;;1.23;100.00
11519;BME280;5816;48.228;14.116;2023-02-14T14:07:30;99828.56;;;1.46;100.00
11519;BME280;5816;48.228;14.116;2023-02-14T14:12:36;99825.34;;;1.31;100.00
11519;BME280;5816;48.228;14.116;2023-02-14T14:17:42;99830.72;;;1.28;100.00
11519;BME280;5816;48.228;14.116;2023-02-14T14:22:50;99822.91;;;1.22;100.00
11519;BME280;5816;48.228;14.116;2023-02-14T14:27:52;99833.09;;;1.41;100.00
11519;BME280;5816;48.228;14.116;2023-02-14T14:32:54;99831.22;;;1.46;100.00
11519;BME280;5816;48.228;14.116;2023-02-14T14:37:57;99804.53;;;1.18;100.00
11519;BME280;5816;48.228;14.116;2023-02-14T14:43:21;99816.56;;;1.31;100.00
11519;BME280;5816;48.228;14.116;2023-02-14T14:53:43;99818.66;;;1.15;100.00
11519;BME280;5816;48.228;14.116;2023-02-14T14:58:46;99816.28;;;1.03;100.00
11519;BME280;5816;48.228;14.116;2023-02-14T15:03:48;99817.97;;;1.07;100.00
11519;BME280;5816;48.228;14.116;2023-02-14T15:08:50;99797.22;;;1.30;100.00
11519;BME280;5816;48.228;14.116;2023-02-14T15:13:52;99814.88;;;1.28;100.00
11519;BME280;5816;48.228;14.116;2023-02-14T15:18:59;99813.75;;;0.97;100.00
11519;BME280;5816;48.228;14.116;2023-02-14T15:24:12;99805.97;;;0.92;100.00
11519;BME280;5816;48.228;14.116;2023-02-14T15:29:24;99808.19;;;1.12;100.00
11519;BME280;5816;48.228;14.116;2023-02-14T15:34:30;99808.47;;;0.97;100.00
11519;BME280;5816;48.228;14.116;2023-02-14T15:39:39;99806.38;;;1.14;100.00
11519;BME280;5816;48.228;14.116;2023-02-14T15:44:42;99813.59;;;1.06;100.00
11519;BME280;5816;48.228;14.116;2023-02-14T15:49:45;99807.50;;;1.02;100.00
11519;BME280;5816;48.228;14.116;2023-02-14T15:54:47;99808.97;;;1.16;100.00
11519;BME280;5816;48.228;14.116;2023-02-14T15:59:49;99804.66;;;1.13;100.00
11519;BME280;5816;48.228;14.116;2023-02-14T16:04:50;99788.94;;;1.07;100.00
11519;BME280;5816;48.228;14.116;2023-02-14T16:15:27;99796.22;;;0.94;100.00
11519;BME280;5816;48.228;14.116;2023-02-14T16:25:39;99782.88;;;1.02;100.00
11519;BME280;5816;48.228;14.116;2023-02-14T16:30:43;99765.78;;;0.78;100.00
11519;BME280;5816;48.228;14.116;2023-02-14T16:35:47;99803.72;;;0.72;100.00
11519;BME280;5816;48.228;14.116;2023-02-14T16:40:51;99814.19;;;0.75;100.00
11519;BME280;5816;48.228;14.116;2023-02-14T16:45:53;99818.19;;;0.50;100.00
11519;BME280;5816;48.228;14.116;2023-02-14T16:50:55;99810.53;;;0.35;100.00
11519;BME280;5816;48.228;14.116;2023-02-14T16:55:58;99817.72;;;0.74;100.00
11519;BME280;5816;48.228;14.116;2023-02-14T17:01:01;99811.31;;;0.88;100.00
11519;BME280;5816;48.228;14.116;2023-02-14T17:06:04;99801.75;;;0.84;100.00
11519;BME280;5816;48.228;14.116;2023-02-14T17:11:08;99806.88;;;0.90;100.00
11519;BME280;5816;48.228;14.116;2023-02-14T17:16:11;99807.88;;;0.38;100.00
11519;BME280;5816;48.228;14.116;2023-02-14T17:21:19;99815.22;;;0.67;100.00
11519;BME280;5816;48.228;14.116;2023-02-14T17:26:21;99811.00;;;0.58;100.00
11519;BME280;5816;48.228;14.116;2023-02-14T17:31:24;99810.81;;;0.67;100.00
11519;BME280;5816;48.228;14.116;2023-02-14T17:36:26;99807.69;;;0.47;100.00
11519;BME280;5816;48.228;14.116;2023-02-14T17:41:28;99810.19;;;0.56;100.00
11519;BME280;5816;48.228;14.116;2023-02-14T17:46:30;99805.22;;;0.38;100.00
11519;BME280;5816;48.228;14.116;2023-02-14T17:51:32;99813.13;;;0.38;100.00
11519;BME280;5816;48.228;14.116;2023-02-14T17:56:34;99810.44;;;0.41;100.00
11519;BME280;5816;48.228;14.116;2023-02-14T18:01:35;99822.69;;;0.45;100.00
11519;BME280;5816;48.228;14.116;2023-02-14T18:06:37;99793.31;;;0.15;100.00
11519;BME280;5816;48.228;14.116;2023-02-14T18:11:41;99806.28;;;0.29;100.00
11519;BME280;5816;48.228;14.116;2023-02-14T18:16:45;99821.31;;;0.22;100.00
11519;BME280;5816;48.228;14.116;2023-02-14T18:21:47;99820.25;;;0.33;100.00
11519;BME280;5816;48.228;14.116;2023-02-14T18:26:48;99810.16;;;0.58;100.00
11519;BME280;5816;48.228;14.116;2023-02-14T18:31:50;99810.81;;;0.19;100.00
11519;BME280;5816;48.228;14.116;2023-02-14T18:36:52;99808.97;;;0.24;100.00
11519;BME280;5816;48.228;14.116;2023-02-14T18:41:55;99812.34;;;0.33;100.00
11519;BME280;5816;48.228;14.116;2023-02-14T18:47:00;99795.91;;;0.18;100.00
11519;BME280;5816;48.228;14.116;2023-02-14T18:52:03;99798.66;;;0.11;100.00
11519;BME280;5816;48.228;14.116;2023-02-14T18:57:05;99804.81;;;0.11;100.00
11519;BME280;5816;48.228;14.116;2023-02-14T19:02:07;99794.06;;;0.23;100.00
11519;BME280;5816;48.228;14.116;2023-02-14T19:07:09;99790.31;;;0.37;100.00
11519;BME280;5816;48.228;14.116;2023-02-14T19:12:11;99795.00;;;0.21;100.00
11519;BME280;5816;48.228;14.116;2023-02-14T19:17:15;99785.03;;;0.37;100.00
11519;BME280;5816;48.228;14.116;2023-02-14T19:22:17;99786.94;;;0.29;100.00
11519;BME280;5816;48.228;14.116;2023-02-14T19:27:19;99786.09;;;0.28;100.00
11519;BME280;5816;48.228;14.116;2023-02-14T19:32:21;99776.41;;;0.29;100.00
11519;BME280;5816;48.228;14.116;2023-02-14T19:37:24;99781.41;;;0.44;100.00
11519;BME280;5816;48.228;14.116;2023-02-14T19:42:27;99756.34;;;0.20;100.00
11519;BME280;5816;48.228;14.116;2023-02-14T19:47:28;99766.34;;;0.01;100.00
11519;BME280;5816;48.228;14.116;2023-02-14T19:52:47;99747.13;;;-0.04;100.00
11519;BME280;5816;48.228;14.116;2023-02-14T19:57:48;99757.81;;;-0.13;100.00
11519;BME280;5816;48.228;14.116;2023-02-14T20:02:50;99751.94;;;0.20;100.00
11519;BME280;5816;48.228;14.116;2023-02-14T20:07:52;99767.72;;;0.23;100.00
11519;BME280;5816;48.228;14.116;2023-02-14T20:12:57;99748.38;;;0.24;100.00
11519;BME280;5816;48.228;14.116;2023-02-14T20:17:59;99759.44;;;0.43;100.00
11519;BME280;5816;48.228;14.116;2023-02-14T20:23:00;99755.06;;;0.41;100.00
11519;BME280;5816;48.228;14.116;2023-02-14T20:28:02;99752.94;;;0.15;100.00
11519;BME280;5816;48.228;14.116;2023-02-14T20:33:04;99764.34;;;0.15;100.00
11519;BME280;5816;48.228;14.116;2023-02-14T20:38:06;99759.22;;;0.06;100.00
11519;BME280;5816;48.228;14.116;2023-02-14T20:43:08;99751.94;;;0.20;100.00
11519;BME280;5816;48.228;14.116;2023-02-14T20:48:10;99752.41;;;0.44;100.00
11519;BME280;5816;48.228;14.116;2023-02-14T20:53:11;99746.91;;;0.08;100.00
11519;BME280;5816;48.228;14.116;2023-02-14T20:58:13;99734.78;;;-0.02;100.00
11519;BME280;5816;48.228;14.116;2023-02-14T21:03:15;99736.53;;;-0.03;100.00
11519;BME280;5816;48.228;14.116;2023-02-14T21:08:16;99724.91;;;0.11;100.00
11519;BME280;5816;48.228;14.116;2023-02-14T21:13:19;99732.47;;;0.27;100.00
11519;BME280;5816;48.228;14.116;2023-02-14T21:18:20;99739.00;;;0.07;100.00
11519;BME280;5816;48.228;14.116;2023-02-14T21:23:22;99730.84;;;0.20;100.00
